Time;durP1;ratioP1;P1;durP2;ratioP2;P2;SDS_P1;SDS_P2;PMS_P1;PMS_P2;Temp;Humidity;BMP_temperature;BMP_pressure;BME280_temperature;BME280_humidity;BME280_pressure;Samples;Min_cycle;Max_cycle;Signal;HPM_P1;HPM_P2
2023/08/04 00:00:30;;;;;;;1.17;0.70;;;;;;;21.54;nan;99943.22;5081004;28;21385;-81
2023/08/04 00:02:56;;;;;;;0.90;0.80;;;;;;;21.55;nan;99944.91;5086868;28;20307;-81
2023/08/04 00:05:21;;;;;;;1.60;1.02;;;;;;;21.54;nan;99943.22;5083941;28;20035;-82
2023/08/04 00:07:47;;;;;;;1.90;0.90;;;;;;;21.54;nan;99946.72;5063557;28;20039;-83
2023/08/04 00:10:12;;;;;;;3.15;1.33;;;;;;;21.54;nan;99944.06;5081190;28;20072;-82
2023/08/04 00:12:37;;;;;;;1.58;0.90;;;;;;;21.55;nan;99944.91;5086375;28;20622;-83
2023/08/04 00:15:04;;;;;;;1.20;1.10;;;;;;;21.55;nan;99936.97;5082139;28;20024;-82
2023/08/04 00:17:29;;;;;;;0.98;0.80;;;;;;;21.55;nan;99934.34;5085552;28;20455;-82
2023/08/04 00:19:55;;;;;;;2.63;1.00;;;;;;;21.56;nan;99936.03;5084815;28;20232;-81
2023/08/04 00:22:21;;;;;;;1.55;0.75;;;;;;;21.55;nan;99937.81;5086650;28;20038;-81
2023/08/04 00:24:46;;;;;;;2.38;1.02;;;;;;;21.56;nan;99933.38;5066157;28;20086;-81
2023/08/04 00:27:12;;;;;;;2.10;0.80;;;;;;;21.55;nan;99929.88;5082528;28;20024;-81
2023/08/04 00:29:37;;;;;;;1.48;0.73;;;;;;;21.55;nan;99931.69;5081875;28;20024;-81
2023/08/04 00:32:02;;;;;;;0.82;0.80;;;;;;;21.56;nan;99930.75;5079488;28;20027;-80
2023/08/04 00:34:28;;;;;;;2.15;1.08;;;;;;;21.55;nan;99929.88;5075750;28;20075;-81
2023/08/04 00:36:53;;;;;;;1.45;0.90;;;;;;;21.56;nan;99930.75;5085857;28;20039;-79
2023/08/04 00:39:18;;;;;;;0.60;0.60;;;;;;;21.56;nan;99930.75;5081247;28;20055;-80
2023/08/04 00:41:44;;;;;;;1.95;0.70;;;;;;;21.55;nan;99934.34;5082853;28;20032;-81
2023/08/04 00:44:10;;;;;;;0.70;0.70;;;;;;;21.55;nan;99934.34;5079135;28;20050;-82
2023/08/04 00:46:38;;;;;;;2.65;0.80;;;;;;;21.56;nan;99936.03;5116329;27;20063;-80
2023/08/04 00:49:04;;;;;;;2.38;0.88;;;;;;;21.56;nan;99939.50;5083962;28;20058;-80
2023/08/04 00:51:33;;;;;;;2.80;0.77;;;;;;;21.56;nan;99928.94;5065629;28;20032;-81
2023/08/04 00:53:59;;;;;;;2.10;1.50;;;;;;;21.57;nan;99940.34;5094770;28;20077;-81
2023/08/04 00:56:26;;;;;;;1.90;0.75;;;;;;;21.56;nan;99936.88;5083001;28;20031;-82
2023/08/04 00:58:52;;;;;;;1.27;0.75;;;;;;;21.57;nan;99937.69;5086245;28;20998;-82
2023/08/04 01:01:17;;;;;;;2.25;0.80;;;;;;;21.56;nan;99938.69;5085410;28;20035;-81
2023/08/04 01:03:42;;;;;;;0.98;0.60;;;;;;;21.57;nan;99932.41;5091952;28;20043;-81
2023/08/04 01:06:34;;;;;;;1.65;0.80;;;;;;;21.58;nan;99939.38;5083709;28;20055;-81
2023/08/04 01:09:23;;;;;;;1.20;0.95;;;;;;;21.58;nan;99934.09;5084327;28;20078;-81
2023/08/04 01:11:59;;;;;;;1.20;0.63;;;;;;;21.59;nan;99933.09;5084964;28;20020;-79
2023/08/04 01:14:25;;;;;;;0.95;0.70;;;;;;;21.58;nan;99929.63;5085559;28;20024;-83
2023/08/04 01:16:50;;;;;;;0.82;0.60;;;;;;;21.58;nan;99939.38;5084992;28;20442;-82
2023/08/04 01:19:16;;;;;;;2.17;1.23;;;;;;;21.58;nan;99929.63;5084489;28;20041;-82
2023/08/04 01:21:42;;;;;;;1.33;0.60;;;;;;;21.58;nan;99934.09;5082124;28;20556;-83
2023/08/04 01:24:08;;;;;;;0.95;0.68;;;;;;;21.57;nan;99935.88;5082096;28;20027;-84
2023/08/04 01:26:39;;;;;;;0.55;0.47;;;;;;;21.58;nan;99934.91;5121080;27;20070;-83
2023/08/04 01:29:06;;;;;;;1.10;0.63;;;;;;;21.59;nan;99933.09;5067223;28;20391;-84
2023/08/04 01:31:33;;;;;;;1.17;0.80;;;;;;;21.60;nan;99932.13;5085195;28;20034;-81
2023/08/04 01:33:58;;;;;;;1.58;0.68;;;;;;;21.58;nan;99928.81;5079573;28;20032;-83
2023/08/04 01:36:24;;;;;;;1.45;0.70;;;;;;;21.58;nan;99929.63;5086178;28;20032;-83
2023/08/04 01:38:49;;;;;;;0.98;0.82;;;;;;;21.58;nan;99937.56;5082765;28;20058;-80
2023/08/04 01:41:14;;;;;;;1.10;0.80;;;;;;;21.57;nan;99929.78;5082775;28;20686;-80
2023/08/04 01:43:40;;;;;;;2.25;1.23;;;;;;;21.59;nan;99931.31;5085548;28;20031;-78
2023/08/04 01:46:05;;;;;;;3.13;0.95;;;;;;;21.59;nan;99933.09;5069772;28;20108;-82
2023/08/04 01:48:30;;;;;;;2.35;0.70;;;;;;;21.59;nan;99933.09;5063236;28;20089;-82
2023/08/04 01:50:56;;;;;;;3.17;0.75;;;;;;;21.59;nan;99933.09;5082281;28;20043;-82
2023/08/04 01:53:21;;;;;;;3.95;1.25;;;;;;;21.58;nan;99929.63;5081038;28;20040;-82
2023/08/04 01:55:47;;;;;;;1.25;1.05;;;;;;;21.59;nan;99933.09;5084739;28;20523;-81
2023/08/04 01:58:13;;;;;;;2.08;0.60;;;;;;;21.59;nan;99941.03;5079862;28;21582;-82
2023/08/04 02:00:38;;;;;;;0.80;0.60;;;;;;;21.59;nan;99941.88;5080398;28;20030;-82
2023/08/04 02:03:03;;;;;;;2.95;0.80;;;;;;;21.59;nan;99941.03;5059675;28;20031;-82
2023/08/04 02:05:29;;;;;;;0.80;0.60;;;;;;;21.58;nan;99942.84;5077879;28;20877;-80
2023/08/04 02:07:54;;;;;;;0.50;0.50;;;;;;;21.58;nan;99940.19;5081017;28;20626;-80
2023/08/04 02:10:19;;;;;;;1.30;0.55;;;;;;;21.59;nan;99946.31;5079430;28;20055;-80
2023/08/04 02:12:45;;;;;;;2.00;0.60;;;;;;;21.59;nan;99936.59;5083880;28;20131;-81
2023/08/04 02:15:10;;;;;;;1.10;0.73;;;;;;;21.59;nan;99930.47;5081520;28;20143;-81
2023/08/04 02:17:36;;;;;;;0.90;0.55;;;;;;;21.59;nan;99935.75;5080966;28;20031;-81
2023/08/04 02:20:02;;;;;;;2.40;1.48;;;;;;;21.61;nan;99941.72;5082239;28;20134;-80
2023/08/04 02:22:27;;;;;;;1.00;0.57;;;;;;;21.60;nan;99937.41;5073530;28;20028;-81
2023/08/04 02:24:52;;;;;;;0.57;0.55;;;;;;;21.59;nan;99941.03;5074025;28;20130;-80
2023/08/04 02:27:18;;;;;;;1.05;0.70;;;;;;;21.60;nan;99937.41;5082815;28;20024;-80
2023/08/04 02:29:43;;;;;;;0.70;0.70;;;;;;;21.60;nan;99945.34;5080115;28;20118;-81
2023/08/04 02:32:08;;;;;;;2.78;0.82;;;;;;;21.60;nan;99943.53;5081129;28;20047;-83
2023/08/04 02:34:34;;;;;;;3.35;0.60;;;;;;;21.59;nan;99941.88;5079702;28;20104;-83
2023/08/04 02:36:59;;;;;;;1.13;0.63;;;;;;;21.59;nan;99952.44;5085606;28;20038;-83
2023/08/04 02:39:24;;;;;;;1.63;0.57;;;;;;;21.59;nan;99946.31;5081713;28;20059;-83
2023/08/04 02:41:50;;;;;;;0.88;0.60;;;;;;;21.59;nan;99947.16;5080567;28;20126;-83
2023/08/04 02:44:15;;;;;;;1.80;0.77;;;;;;;21.61;nan;99953.16;5077249;28;20420;-83
2023/08/04 02:46:40;;;;;;;2.72;0.80;;;;;;;21.59;nan;99948.97;5086826;28;20782;-83
2023/08/04 02:49:06;;;;;;;1.88;0.60;;;;;;;21.59;nan;99951.59;5082013;28;20055;-83
2023/08/04 02:51:31;;;;;;;1.75;0.90;;;;;;;21.60;nan;99958.56;5080618;28;20124;-84
2023/08/04 02:53:56;;;;;;;1.17;0.75;;;;;;;21.59;nan;99957.72;5066685;28;20118;-83
2023/08/04 02:56:22;;;;;;;1.02;0.82;;;;;;;21.60;nan;99955.91;5088944;28;20190;-80
2023/08/04 02:58:47;;;;;;;0.60;0.60;;;;;;;21.60;nan;99953.25;5080128;28;20089;-80
2023/08/04 03:01:13;;;;;;;1.05;0.60;;;;;;;21.60;nan;99955.91;5079968;28;20084;-79
2023/08/04 03:03:39;;;;;;;1.15;0.65;;;;;;;21.59;nan;99956.88;5080842;28;20384;-80
2023/08/04 03:06:04;;;;;;;1.65;0.60;;;;;;;21.59;nan;99956.88;5077881;28;20024;-80
2023/08/04 03:08:31;;;;;;;1.45;0.60;;;;;;;21.58;nan;99958.69;5065983;28;20825;-80
2023/08/04 03:10:56;;;;;;;0.98;0.68;;;;;;;21.59;nan;99956.88;5080117;28;20503;-80
2023/08/04 03:13:22;;;;;;;2.30;0.70;;;;;;;21.59;nan;99951.59;5084739;28;20028;-80
2023/08/04 03:15:56;;;;;;;1.58;0.52;;;;;;;21.59;nan;99954.25;5078237;28;20038;-80
2023/08/04 03:18:22;;;;;;;4.70;1.25;;;;;;;21.58;nan;99955.22;5062881;28;20057;-83
2023/08/04 03:20:47;;;;;;;2.10;0.70;;;;;;;21.58;nan;99949.94;5082858;28;20099;-83
2023/08/04 03:23:12;;;;;;;1.75;0.75;;;;;;;21.58;nan;99949.94;5077136;28;20024;-83
2023/08/04 03:25:38;;;;;;;0.75;0.60;;;;;;;21.59;nan;99951.59;5087947;28;20043;-81
2023/08/04 03:28:03;;;;;;;2.95;0.60;;;;;;;21.60;nan;99947.97;5078685;28;20065;-82
2023/08/04 03:30:29;;;;;;;1.70;0.60;;;;;;;21.60;nan;99955.91;5079886;28;20073;-81
2023/08/04 03:32:54;;;;;;;1.02;0.60;;;;;;;21.60;nan;99961.19;5077635;28;20885;-81
2023/08/04 03:35:19;;;;;;;2.65;0.50;;;;;;;21.60;nan;99958.56;5082444;28;20152;-81
2023/08/04 03:37:45;;;;;;;0.98;0.55;;;;;;;21.59;nan;99956.88;5064071;28;20073;-81
2023/08/04 03:40:10;;;;;;;0.95;0.55;;;;;;;21.59;nan;99972.72;5080588;28;20531;-81
2023/08/04 03:42:37;;;;;;;1.65;0.50;;;;;;;21.58;nan;99971.06;5078460;28;20391;-82
2023/08/04 03:45:04;;;;;;;1.02;0.60;;;;;;;21.58;nan;99966.63;5082931;28;20038;-81
2023/08/04 03:47:29;;;;;;;0.98;0.60;;;;;;;21.59;nan;99970.09;5086297;28;20154;-81
2023/08/04 03:49:55;;;;;;;4.20;0.60;;;;;;;21.58;nan;99971.91;5087616;28;20024;-81
2023/08/04 03:52:21;;;;;;;1.15;0.55;;;;;;;21.59;nan;99972.72;5086584;28;20411;-81
2023/08/04 03:54:46;;;;;;;1.30;0.57;;;;;;;21.58;nan;99971.06;5085315;28;20032;-81
2023/08/04 03:57:11;;;;;;;0.50;0.50;;;;;;;21.58;nan;99973.72;5085228;28;20055;-81
2023/08/04 03:59:37;;;;;;;0.50;0.40;;;;;;;21.59;nan;99970.09;5083554;28;20051;-82
2023/08/04 04:02:02;;;;;;;1.08;0.63;;;;;;;21.59;nan;99975.38;5080947;28;20063;-81
2023/08/04 04:04:27;;;;;;;0.70;0.70;;;;;;;21.59;nan;99967.44;5083346;28;20151;-81
2023/08/04 04:06:53;;;;;;;0.88;0.57;;;;;;;21.59;nan;99978.00;5082069;28;20483;-82
2023/08/04 04:09:18;;;;;;;0.47;0.47;;;;;;;21.59;nan;99978.00;5082822;28;20454;-83
2023/08/04 04:11:43;;;;;;;0.85;0.50;;;;;;;21.59;nan;99978.00;5085554;28;20973;-82
2023/08/04 04:14:10;;;;;;;1.45;0.60;;;;;;;21.58;nan;99974.53;5085597;28;20118;-82
2023/08/04 04:16:36;;;;;;;0.60;0.60;;;;;;;21.58;nan;99984.28;5081229;28;20040;-82
2023/08/04 04:19:01;;;;;;;1.33;0.60;;;;;;;21.59;nan;99978.84;5066041;28;20031;-81
2023/08/04 04:21:26;;;;;;;0.95;0.77;;;;;;;21.59;nan;99975.38;5085332;28;20032;-83
2023/08/04 04:23:52;;;;;;;1.65;0.50;;;;;;;21.58;nan;99976.34;5081399;28;20086;-82
2023/08/04 04:26:17;;;;;;;2.45;0.70;;;;;;;21.59;nan;99983.28;5079232;28;20031;-82
2023/08/04 04:28:42;;;;;;;1.67;1.20;;;;;;;21.58;nan;99985.09;5082103;28;20774;-82
2023/08/04 04:31:08;;;;;;;0.95;0.52;;;;;;;21.57;nan;99982.59;5081267;28;20050;-82
2023/08/04 04:33:33;;;;;;;1.40;0.70;;;;;;;21.56;nan;99984.41;5069298;28;20023;-82
2023/08/04 04:35:58;;;;;;;2.60;0.73;;;;;;;21.59;nan;99996.50;5083951;28;20044;-81
2023/08/04 04:38:27;;;;;;;0.50;0.50;;;;;;;21.58;nan;99992.19;5081000;28;20913;-81
2023/08/04 04:41:01;;;;;;;2.78;0.75;;;;;;;21.60;nan;99996.38;5083342;28;20423;-82
2023/08/04 04:43:27;;;;;;;0.50;0.50;;;;;;;21.59;nan;99993.88;5070722;28;20054;-81
2023/08/04 04:45:53;;;;;;;0.77;0.60;;;;;;;21.59;nan;99999.16;5080670;28;20221;-82
2023/08/04 04:48:20;;;;;;;0.60;0.60;;;;;;;21.58;nan;99995.66;5066350;28;21098;-81
2023/08/04 04:50:45;;;;;;;0.60;0.60;;;;;;;21.59;nan;100002.63;5081686;28;20674;-79
2023/08/04 04:53:11;;;;;;;1.75;0.57;;;;;;;21.58;nan;100005.41;5068881;28;20042;-80
2023/08/04 04:55:36;;;;;;;0.80;0.50;;;;;;;21.59;nan;100005.25;5076509;28;20028;-81
2023/08/04 04:58:01;;;;;;;1.17;0.50;;;;;;;21.59;nan;100009.72;5064694;28;20055;-81
2023/08/04 05:00:27;;;;;;;1.75;0.70;;;;;;;21.60;nan;100003.47;5080535;28;20315;-81
2023/08/04 05:02:52;;;;;;;0.52;0.52;;;;;;;21.59;nan;100010.56;5080990;27;20028;-80
2023/08/04 05:05:17;;;;;;;2.95;0.70;;;;;;;21.58;nan;100008.88;5074358;28;20028;-80
2023/08/04 05:07:43;;;;;;;0.50;0.50;;;;;;;21.57;nan;100015.13;5081256;28;20057;-80
2023/08/04 05:10:09;;;;;;;0.93;0.50;;;;;;;21.57;nan;100015.13;5082641;28;20023;-80
2023/08/04 05:12:34;;;;;;;1.65;0.60;;;;;;;21.58;nan;100013.34;5086680;28;20023;-80
2023/08/04 05:15:00;;;;;;;1.45;0.43;;;;;;;21.57;nan;100017.78;5064061;28;20118;-79
2023/08/04 05:17:25;;;;;;;2.05;0.60;;;;;;;21.58;nan;100013.34;5066653;28;20031;-81
2023/08/04 05:19:50;;;;;;;2.20;0.60;;;;;;;21.58;nan;100024.72;5085568;28;20032;-81
2023/08/04 05:22:16;;;;;;;0.85;0.60;;;;;;;21.59;nan;100018.47;5079456;27;20039;-82
2023/08/04 05:24:41;;;;;;;0.90;0.50;;;;;;;21.58;nan;100018.63;5081412;28;20042;-81
2023/08/04 05:27:08;;;;;;;1.27;0.70;;;;;;;21.59;nan;100025.56;5081219;28;20031;-81
2023/08/04 05:29:33;;;;;;;0.70;0.50;;;;;;;21.57;nan;100022.22;5083446;28;20369;-82
2023/08/04 05:31:58;;;;;;;1.95;0.70;;;;;;;21.58;nan;100023.91;5082227;28;20027;-82
2023/08/04 05:34:24;;;;;;;1.65;0.63;;;;;;;21.58;nan;100030.00;5072689;28;20035;-82
2023/08/04 05:36:49;;;;;;;3.97;0.70;;;;;;;21.59;nan;100028.22;5081833;28;20068;-82
2023/08/04 05:39:14;;;;;;;0.98;0.50;;;;;;;21.58;nan;100035.28;5082732;28;20072;-82
2023/08/04 05:41:41;;;;;;;0.60;0.50;;;;;;;21.59;nan;100036.13;5080420;28;20151;-82
2023/08/04 05:44:07;;;;;;;1.65;0.52;;;;;;;21.56;nan;100034.59;5077927;28;20463;-82
2023/08/04 05:46:32;;;;;;;1.60;0.70;;;;;;;21.58;nan;100032.66;5080797;28;20143;-83
2023/08/04 05:48:57;;;;;;;0.75;0.70;;;;;;;21.58;nan;100035.28;5082683;28;20092;-81
2023/08/04 05:51:23;;;;;;;0.68;0.47;;;;;;;21.58;nan;100037.09;5080002;28;20027;-82
2023/08/04 05:53:48;;;;;;;0.65;0.50;;;;;;;21.59;nan;100039.59;5081935;28;20113;-81
2023/08/04 05:56:13;;;;;;;2.03;0.60;;;;;;;21.59;nan;100034.31;5089035;28;20111;-82
2023/08/04 05:58:39;;;;;;;1.25;0.43;;;;;;;21.58;nan;100039.75;5064791;28;20615;-81
2023/08/04 06:01:05;;;;;;;0.63;0.47;;;;;;;21.59;nan;100036.97;5079813;28;20713;-81
2023/08/04 06:03:31;;;;;;;2.72;0.85;;;;;;;21.59;nan;100036.97;5083566;28;20032;-81
2023/08/04 06:05:57;;;;;;;5.45;0.80;;;;;;;21.62;nan;100041.16;5085478;28;20027;-79
2023/08/04 06:08:22;;;;;;;1.30;0.57;;;;;;;21.62;nan;100041.16;5080614;28;20043;-81
2023/08/04 06:10:47;;;;;;;1.33;0.60;;;;;;;21.59;nan;100047.53;5077185;28;20027;-79
2023/08/04 06:13:13;;;;;;;2.15;0.95;;;;;;;21.55;nan;100046.09;5066164;28;20623;-76
2023/08/04 06:15:38;;;;;;;0.43;0.40;;;;;;;21.54;nan;100046.25;5078183;28;20036;-77
2023/08/04 06:18:04;;;;;;;3.35;0.90;;;;;;;21.52;nan;100056.13;5078394;28;20027;-77
2023/08/04 06:20:29;;;;;;;2.20;0.70;;;;;;;21.51;nan;100059.72;5080502;28;20146;-77
2023/08/04 06:22:54;;;;;;;3.70;0.80;;;;;;;21.51;nan;100049.16;5073135;28;20024;-79
2023/08/04 06:25:20;;;;;;;1.83;0.65;;;;;;;21.51;nan;100054.44;5056319;28;20135;-76
2023/08/04 06:27:45;;;;;;;1.45;0.90;;;;;;;21.47;nan;100051.22;5080326;28;20032;-77
2023/08/04 06:30:10;;;;;;;1.48;0.70;;;;;;;21.46;nan;100052.19;5077665;28;20036;-80
2023/08/04 06:32:36;;;;;;;2.38;0.80;;;;;;;21.45;nan;100055.81;5076853;28;20068;-81
2023/08/04 06:35:02;;;;;;;1.23;0.90;;;;;;;21.43;nan;100058.56;5073398;28;20419;-80
2023/08/04 06:37:27;;;;;;;0.68;0.60;;;;;;;21.42;nan;100062.16;5095902;27;20845;-79
2023/08/04 06:39:52;;;;;;;1.73;0.60;;;;;;;21.45;nan;100065.53;5061103;28;20049;-78
2023/08/04 06:42:18;;;;;;;1.10;0.80;;;;;;;21.41;nan;100071.06;5072859;28;20031;-79
2023/08/04 06:44:44;;;;;;;1.35;0.70;;;;;;;21.44;nan;100072.59;5056523;28;20766;-82
2023/08/04 06:47:10;;;;;;;8.77;1.50;;;;;;;21.32;nan;100073.63;5073905;28;20531;-74
2023/08/04 06:49:35;;;;;;;6.88;2.03;;;;;;;21.04;nan;100078.53;5075491;28;20054;-72
2023/08/04 06:52:02;;;;;;;1.63;1.40;;;;;;;20.94;nan;100076.78;5055956;28;20012;-75
2023/08/04 06:54:27;;;;;;;1.25;1.15;;;;;;;20.81;nan;100076.94;5100031;27;20820;-75
2023/08/04 06:56:53;;;;;;;3.53;1.40;;;;;;;20.67;nan;100085.16;5076895;28;20076;-72
2023/08/04 06:59:18;;;;;;;7.18;1.73;;;;;;;20.79;nan;100082.34;5076809;28;22957;-75
2023/08/04 07:01:44;;;;;;;4.15;1.50;;;;;;;20.79;nan;100079.69;5075639;28;20035;-76
2023/08/04 07:04:09;;;;;;;5.35;1.50;;;;;;;20.81;nan;100080.41;5058049;28;20067;-79
2023/08/04 07:06:34;;;;;;;3.45;1.40;;;;;;;20.87;nan;100086.97;5076368;28;21040;-79
2023/08/04 07:09:00;;;;;;;2.42;1.50;;;;;;;20.84;nan;100088.09;5080584;28;20019;-78
2023/08/04 07:11:25;;;;;;;7.35;1.67;;;;;;;20.83;nan;100090.84;5077865;28;20028;-79
2023/08/04 07:13:50;;;;;;;2.13;1.50;;;;;;;20.81;nan;100090.13;5055709;28;20039;-78
2023/08/04 07:16:16;;;;;;;4.30;1.65;;;;;;;20.79;nan;100095.53;5074998;28;20035;-78
2023/08/04 07:18:41;;;;;;;1.52;1.38;;;;;;;20.79;nan;100094.69;5081938;28;20148;-77
2023/08/04 07:21:08;;;;;;;3.45;1.52;;;;;;;20.81;nan;100104.16;5082674;28;20043;-78
2023/08/04 07:23:33;;;;;;;2.53;1.30;;;;;;;20.82;nan;100103.22;5082960;28;20054;-78
2023/08/04 07:25:59;;;;;;;1.45;1.10;;;;;;;20.78;nan;100093.88;5068289;28;20036;-79
2023/08/04 07:28:24;;;;;;;2.97;1.38;;;;;;;20.74;nan;100096.88;5085047;28;20177;-79
2023/08/04 07:30:49;;;;;;;2.67;1.52;;;;;;;20.79;nan;100099.97;5067338;28;20039;-82
2023/08/04 07:33:15;;;;;;;4.60;1.38;;;;;;;20.90;nan;100103.41;5082660;28;20054;-79
2023/08/04 07:35:40;;;;;;;4.80;1.40;;;;;;;20.87;nan;100106.31;5084300;28;20625;-79
2023/08/04 07:38:05;;;;;;;3.75;1.40;;;;;;;20.86;nan;100101.97;5064619;28;20115;-79
2023/08/04 07:40:31;;;;;;;1.98;1.10;;;;;;;20.86;nan;100106.44;5082125;28;20059;-79
2023/08/04 07:42:56;;;;;;;2.83;1.40;;;;;;;20.90;nan;100111.34;5086257;28;20142;-80
2023/08/04 07:45:21;;;;;;;4.40;1.40;;;;;;;20.85;nan;100102.94;5077524;28;20027;-78
2023/08/04 07:47:46;;;;;;;3.88;1.40;;;;;;;20.86;nan;100104.63;5083883;28;20087;-79
2023/08/04 07:50:12;;;;;;;1.73;1.10;;;;;;;20.89;nan;100107.03;5082718;28;20024;-76
2023/08/04 07:52:37;;;;;;;2.28;1.33;;;;;;;21.07;nan;100109.13;5080164;28;20036;-78
2023/08/04 07:55:03;;;;;;;2.75;1.35;;;;;;;21.18;nan;100107.28;5081668;28;20131;-79
2023/08/04 07:57:28;;;;;;;1.58;1.02;;;;;;;21.27;nan;100110.09;5062804;28;20028;-79
2023/08/04 07:59:54;;;;;;;4.10;1.42;;;;;;;21.31;nan;100109.75;5083667;28;20138;-77
2023/08/04 08:02:19;;;;;;;3.42;1.50;;;;;;;21.35;nan;100113.84;5061224;28;20035;-78
2023/08/04 08:04:44;;;;;;;1.35;1.25;;;;;;;21.37;nan;100114.53;5086658;28;20020;-78
2023/08/04 08:07:10;;;;;;;2.17;1.20;;;;;;;21.39;nan;100115.25;5083428;28;20035;-78
2023/08/04 08:09:35;;;;;;;2.25;1.30;;;;;;;21.41;nan;100113.31;5084115;28;20036;-73
2023/08/04 08:12:00;;;;;;;2.53;1.10;;;;;;;21.42;nan;100115.00;5077334;28;20103;-76
2023/08/04 08:14:26;;;;;;;1.40;1.17;;;;;;;21.42;nan;100114.16;5086880;28;20090;-74
2023/08/04 08:16:51;;;;;;;1.95;1.10;;;;;;;21.43;nan;100119.28;5083198;28;20055;-77
2023/08/04 08:19:16;;;;;;;2.03;1.38;;;;;;;21.43;nan;100132.50;5081785;28;20066;-72
2023/08/04 08:21:42;;;;;;;3.67;1.20;;;;;;;21.45;nan;100135.03;5080467;28;20127;-73
2023/08/04 08:24:08;;;;;;;2.40;1.25;;;;;;;21.47;nan;100140.19;5080301;28;20032;-74
2023/08/04 08:26:33;;;;;;;5.65;1.10;;;;;;;21.48;nan;100147.13;5087200;28;20123;-74
2023/08/04 08:28:59;;;;;;;2.80;1.10;;;;;;;21.48;nan;100145.34;5078252;28;20024;-74
2023/08/04 08:31:24;;;;;;;2.40;1.10;;;;;;;21.50;nan;100145.19;5081064;28;20031;-73
2023/08/04 08:33:50;;;;;;;3.38;1.15;;;;;;;21.50;nan;100148.69;5077831;28;20028;-77
2023/08/04 08:36:17;;;;;;;3.30;1.10;;;;;;;21.52;nan;100149.41;5077764;28;20764;-76
2023/08/04 08:38:43;;;;;;;3.83;1.60;;;;;;;21.53;nan;100158.16;5081070;28;20127;-72
2023/08/04 08:41:11;;;;;;;1.75;1.20;;;;;;;21.53;nan;100160.81;5080395;28;20031;-73
2023/08/04 08:43:36;;;;;;;2.45;1.10;;;;;;;21.54;nan;100165.13;5077930;28;20026;-72
2023/08/04 08:46:02;;;;;;;1.38;1.20;;;;;;;21.55;nan;100162.34;5083688;28;20063;-73
2023/08/04 08:48:29;;;;;;;2.45;1.00;;;;;;;21.55;nan;100164.97;5081767;28;20116;-72
2023/08/04 08:51:01;;;;;;;2.65;1.17;;;;;;;21.57;nan;100162.22;5078474;28;20066;-76
2023/08/04 08:53:30;;;;;;;2.20;1.50;;;;;;;21.59;nan;100162.94;5076387;28;20707;-76
2023/08/04 08:55:55;;;;;;;1.48;1.20;;;;;;;21.59;nan;100161.13;5076813;28;20115;-75
2023/08/04 08:58:21;;;;;;;2.15;1.00;;;;;;;21.60;nan;100164.59;5080222;28;20062;-74
2023/08/04 09:00:47;;;;;;;2.42;1.55;;;;;;;21.61;nan;100166.28;5063121;28;20035;-74
2023/08/04 09:03:12;;;;;;;2.92;1.23;;;;;;;21.62;nan;100167.97;5075046;28;20753;-72
2023/08/04 09:05:37;;;;;;;1.20;1.10;;;;;;;21.63;nan;100165.19;5082722;28;20035;-75
2023/08/04 09:08:03;;;;;;;1.77;1.10;;;;;;;21.63;nan;100164.38;5081027;27;20161;-73
2023/08/04 09:10:28;;;;;;;1.85;1.15;;;;;;;21.65;nan;100170.34;5078834;28;20024;-72
2023/08/04 09:12:55;;;;;;;1.27;1.10;;;;;;;21.66;nan;100166.72;5082048;28;20027;-74
2023/08/04 09:15:32;;;;;;;1.58;1.17;;;;;;;21.66;nan;100161.44;5074294;28;20035;-74
2023/08/04 09:17:57;;;;;;;1.00;0.93;;;;;;;21.67;nan;100160.50;5079616;28;20036;-75
2023/08/04 09:20:28;;;;;;;1.73;1.05;;;;;;;21.68;nan;100164.81;5063301;28;20036;-74
2023/08/04 09:22:53;;;;;;;1.30;1.20;;;;;;;21.68;nan;100160.38;5078382;28;20032;-74
2023/08/04 09:25:20;;;;;;;1.27;0.93;;;;;;;21.70;nan;100160.22;5080777;28;20675;-76
2023/08/04 09:27:49;;;;;;;1.02;0.90;;;;;;;21.72;nan;100165.38;5079059;28;20034;-75
2023/08/04 09:30:16;;;;;;;2.67;0.90;;;;;;;21.72;nan;100174.13;5060471;28;20058;-74
2023/08/04 09:32:46;;;;;;;5.15;1.20;;;;;;;21.73;nan;100170.56;5078034;28;20636;-74
2023/08/04 09:35:12;;;;;;;3.25;1.35;;;;;;;21.73;nan;100170.56;5073532;28;20024;-76
2023/08/04 09:37:38;;;;;;;2.95;1.17;;;;;;;21.74;nan;100176.69;5063687;28;20088;-73
2023/08/04 09:40:11;;;;;;;1.90;1.00;;;;;;;21.72;nan;100179.41;5078575;28;20046;-74
2023/08/04 09:42:37;;;;;;;1.02;0.90;;;;;;;21.73;nan;100170.56;5058833;28;20043;-74
2023/08/04 09:45:02;;;;;;;1.08;1.00;;;;;;;21.73;nan;100172.38;5074252;28;20047;-75
2023/08/04 09:47:28;;;;;;;1.17;1.00;;;;;;;21.74;nan;100182.78;5080339;28;20038;-74
2023/08/04 09:49:54;;;;;;;2.05;1.10;;;;;;;21.73;nan;100181.13;5077890;28;20055;-74
2023/08/04 09:52:20;;;;;;;2.63;1.00;;;;;;;21.72;nan;100178.59;5081708;28;20036;-73
2023/08/04 09:54:46;;;;;;;2.15;1.30;;;;;;;21.74;nan;100185.44;5072158;28;20028;-74
2023/08/04 09:57:13;;;;;;;2.95;1.10;;;;;;;21.74;nan;100181.97;5063025;28;20036;-74
2023/08/04 09:59:40;;;;;;;1.00;1.00;;;;;;;21.72;nan;100184.72;5078980;28;20065;-74
2023/08/04 10:02:05;;;;;;;1.52;1.00;;;;;;;21.73;nan;100175.84;5077804;28;20643;-76
2023/08/04 10:04:33;;;;;;;1.83;1.23;;;;;;;21.73;nan;100185.56;5078921;28;20024;-74
2023/08/04 10:06:59;;;;;;;4.05;2.15;;;;;;;21.74;nan;100180.16;5078391;28;20853;-75
2023/08/04 10:09:30;;;;;;;2.33;2.10;;;;;;;21.57;nan;100180.72;5080847;28;20038;-73
2023/08/04 10:11:56;;;;;;;3.17;2.35;;;;;;;21.45;nan;100184.38;5075643;28;20036;-77
2023/08/04 10:14:21;;;;;;;4.85;2.65;;;;;;;21.49;nan;100176.06;5073593;28;20090;-73
2023/08/04 10:16:47;;;;;;;2.85;2.55;;;;;;;21.45;nan;100168.53;5079231;28;20748;-76
2023/08/04 10:19:12;;;;;;;3.70;3.30;;;;;;;21.50;nan;100174.25;5080499;28;20082;-72
2023/08/04 10:21:41;;;;;;;2.70;2.50;;;;;;;21.46;nan;100172.84;5078351;28;20036;-74
2023/08/04 10:24:11;;;;;;;3.38;3.10;;;;;;;21.41;nan;100179.34;5075460;28;20093;-73
2023/08/04 10:26:45;;;;;;;5.05;3.28;;;;;;;21.41;nan;100176.69;5077159;28;20088;-76
2023/08/04 10:29:11;;;;;;;4.60;2.80;;;;;;;21.35;nan;100187.78;5080889;28;20028;-75
2023/08/04 10:31:55;;;;;;;4.05;3.60;;;;;;;21.34;nan;100191.38;5078340;28;20028;-78
2023/08/04 10:34:31;;;;;;;3.85;3.28;;;;;;;21.43;nan;100187.13;5072222;28;20060;-79
2023/08/04 10:37:12;;;;;;;3.30;3.00;;;;;;;21.51;nan;100183.88;5079695;28;20832;-79
2023/08/04 10:39:43;;;;;;;2.78;2.58;;;;;;;21.57;nan;100176.28;5080015;28;20044;-77
2023/08/04 10:42:12;;;;;;;3.30;2.95;;;;;;;21.59;nan;100186.72;5075443;28;20429;-77
2023/08/04 10:44:50;;;;;;;3.45;3.15;;;;;;;21.60;nan;100191.03;5073725;28;20559;-79
2023/08/04 10:47:16;;;;;;;4.43;2.63;;;;;;;21.59;nan;100186.72;5079321;28;20028;-77
2023/08/04 10:49:42;;;;;;;8.38;2.85;;;;;;;21.63;nan;100180.22;5080327;28;20028;-78
2023/08/04 10:52:07;;;;;;;3.63;2.85;;;;;;;21.64;nan;100184.53;5078818;28;20031;-78
2023/08/04 10:54:33;;;;;;;7.20;3.20;;;;;;;21.65;nan;100183.56;5065923;28;20024;-79
2023/08/04 10:56:58;;;;;;;3.63;2.85;;;;;;;21.62;nan;100197.03;5078721;28;20541;-79
2023/08/04 10:59:31;;;;;;;3.28;2.90;;;;;;;21.62;nan;100197.03;5076680;28;20075;-79
2023/08/04 11:01:57;;;;;;;2.70;2.50;;;;;;;21.62;nan;100215.53;5075607;28;20028;-80
2023/08/04 11:04:22;;;;;;;2.83;2.63;;;;;;;21.61;nan;100213.81;5088438;28;20589;-78
2023/08/04 11:06:48;;;;;;;6.43;2.97;;;;;;;21.62;nan;100215.53;5060473;28;20114;-80
2023/08/04 11:09:14;;;;;;;6.72;2.80;;;;;;;21.60;nan;100223.56;5077331;28;20036;-78
2023/08/04 11:11:39;;;;;;;2.70;2.50;;;;;;;21.58;nan;100217.56;5059730;28;20127;-80
2023/08/04 11:14:07;;;;;;;4.22;2.35;;;;;;;21.57;nan;100223.00;5082311;28;20035;-79
2023/08/04 11:16:35;;;;;;;3.58;2.80;;;;;;;21.55;nan;100215.16;5110364;27;20024;-78
2023/08/04 11:19:03;;;;;;;3.05;2.78;;;;;;;21.55;nan;100215.16;5079457;28;20038;-78
2023/08/04 11:21:29;;;;;;;4.15;2.40;;;;;;;21.55;nan;100214.34;5075964;28;20459;-78
2023/08/04 11:23:54;;;;;;;2.85;2.53;;;;;;;21.54;nan;100224.06;5065005;28;20028;-79
2023/08/04 11:26:19;;;;;;;3.45;2.47;;;;;;;21.55;nan;100230.19;5079748;28;20020;-80
2023/08/04 11:28:45;;;;;;;2.90;2.60;;;;;;;21.54;nan;100216.13;5079500;28;20076;-79
2023/08/04 11:31:10;;;;;;;2.80;2.60;;;;;;;21.55;nan;100225.72;5079077;28;20032;-76
2023/08/04 11:33:42;;;;;;;3.40;2.90;;;;;;;21.56;nan;100232.72;5082471;28;20078;-80
2023/08/04 11:36:07;;;;;;;3.78;2.60;;;;;;;21.56;nan;100221.31;5077227;28;20182;-79
2023/08/04 11:38:33;;;;;;;3.17;2.58;;;;;;;21.56;nan;100226.59;5078149;28;20952;-79
2023/08/04 11:41:00;;;;;;;3.78;2.63;;;;;;;21.57;nan;100218.53;5077299;28;20109;-77